Time,TemperatureF,DewpointF,PressureIn,WindDirection,WindDirectionDegrees,WindSpeedMPH,WindSpeedGustMPH,Humidity,HourlyPrecipIn,Conditions,Clouds,dailyrainin,SoftwareType,DateUTC
2013-06-17 00:00:00,61.4,59.1,29.98,NNW,344,0.0,0.0,92,0.00,,,0.00,Wunderground v.1.15,2013-06-17 05:00:00,
2013-06-17 00:05:00,61.4,59.1,29.99,NNW,342,0.0,0.0,92,0.00,,,0.00,Wunderground v.1.15,2013-06-17 05:05:00,
2013-06-17 00:10:00,61.4,59.1,29.98,NNW,343,0.0,0.0,92,0.00,,,0.00,Wunderground v.1.15,2013-06-17 05:10:00,
2013-06-17 00:15:00,61.4,59.1,29.98,NNW,344,0.0,0.0,92,0.00,,,0.00,Wunderground v.1.15,2013-06-17 05:15:00,
2013-06-17 00:20:00,61.4,59.4,29.98,NNW,344,0.0,0.0,93,0.00,,,0.00,Wunderground v.1.15,2013-06-17 05:20:00,
2013-06-17 00:25:00,61.3,59.3,29.98,NNW,344,0.0,0.0,93,0.00,,,0.00,Wunderground v.1.15,2013-06-17 05:25:00,
2013-06-17 00:30:00,61.3,59.3,29.98,NNW,344,0.0,0.0,93,0.00,,,0.00,Wunderground v.1.15,2013-06-17 05:30:00,
2013-06-17 00:35:00,61.4,59.4,29.98,NNW,344,0.0,0.0,93,0.00,,,0.00,Wunderground v.1.15,2013-06-17 05:35:00,
2013-06-17 00:40:00,61.4,59.4,29.98,NNW,344,0.0,0.0,93,0.00,,,0.00,Wunderground v.1.15,2013-06-17 05:40:00,
2013-06-17 00:45:00,61.5,59.5,29.97,NNW,343,0.0,0.0,93,0.00,,,0.00,Wunderground v.1.15,2013-06-17 05:45:00,
2013-06-17 00:55:00,61.8,59.8,29.97,NNW,344,0.0,0.0,93,0.00,,,0.00,Wunderground v.1.15,2013-06-17 05:55:00,
2013-06-17 01:00:00,61.8,59.8,29.97,NNW,344,0.0,0.0,93,0.00,,,0.00,Wunderground v.1.15,2013-06-17 06:00:00,
2013-06-17 01:05:00,61.8,59.8,29.97,NNW,344,0.0,0.0,93,0.00,,,0.00,Wunderground v.1.15,2013-06-17 06:05:00,
2013-06-17 01:15:00,61.8,59.8,29.97,NNW,344,0.0,0.0,93,0.00,,,0.00,Wunderground v.1.15,2013-06-17 06:15:00,
2013-06-17 01:20:00,61.9,59.9,29.96,NNW,344,0.0,0.0,93,0.00,,,0.00,Wunderground v.1.15,2013-06-17 06:20:00,
2013-06-17 01:25:00,62.0,60.0,29.96,NNW,344,0.0,0.0,93,0.00,,,0.00,Wunderground v.1.15,2013-06-17 06:25:00,
2013-06-17 01:30:00,62.0,60.0,29.96,NNW,344,0.0,0.0,93,0.00,,,0.00,Wunderground v.1.15,2013-06-17 06:30:00,
2013-06-17 01:35:00,62.0,60.0,29.96,NNW,344,0.0,0.0,93,0.00,,,0.00,Wunderground v.1.15,2013-06-17 06:35:00,
2013-06-17 01:40:00,62.0,60.0,29.96,NNW,344,0.0,0.0,93,0.00,,,0.00,Wunderground v.1.15,2013-06-17 06:40:00,
2013-06-17 01:50:00,61.7,59.4,29.96,NNW,342,0.0,0.0,92,0.00,,,0.00,Wunderground v.1.15,2013-06-17 06:50:00,
2013-06-17 01:55:00,61.6,59.3,29.96,NNW,344,0.0,0.0,92,0.00,,,0.00,Wunderground v.1.15,2013-06-17 06:55:00,
2013-06-17 02:05:00,61.2,58.9,29.97,NNW,344,0.0,0.0,92,0.00,,,0.00,Wunderground v.1.15,2013-06-17 07:05:00,
2013-06-17 02:15:00,60.9,58.6,29.97,NNW,344,0.0,0.0,92,0.00,,,0.00,Wunderground v.1.15,2013-06-17 07:15:00,
2013-06-17 02:25:00,60.7,58.4,29.97,NNW,344,0.0,0.0,92,0.00,,,0.00,Wunderground v.1.15,2013-06-17 07:25:00,
2013-06-17 02:30:00,60.5,58.5,29.97,NNW,344,0.0,0.0,93,0.00,,,0.00,Wunderground v.1.15,2013-06-17 07:30:00,
2013-06-17 02:35:00,60.3,58.3,29.97,NNW,344,0.0,0.0,93,0.00,,,0.00,Wunderground v.1.15,2013-06-17 07:35:00,
2013-06-17 02:40:00,60.2,58.2,29.97,NNW,344,0.0,0.0,93,0.00,,,0.00,Wunderground v.1.15,2013-06-17 07:40:00,
2013-06-17 02:50:00,59.9,57.9,29.97,NNW,344,0.0,0.0,93,0.00,,,0.00,Wunderground v.1.15,2013-06-17 07:50:00,
2013-06-17 02:55:00,59.8,57.8,29.96,NNW,344,0.0,0.0,93,0.00,,,0.00,Wunderground v.1.15,2013-06-17 07:55:00,
2013-06-17 03:00:00,59.7,57.7,29.96,NNW,343,0.0,0.0,93,0.00,,,0.00,Wunderground v.1.15,2013-06-17 08:00:00,
2013-06-17 03:05:00,59.6,57.6,29.96,NNW,342,0.0,0.0,93,0.00,,,0.00,Wunderground v.1.15,2013-06-17 08:05:00,
2013-06-17 03:15:00,59.4,57.4,29.96,NNW,343,0.0,0.0,93,0.00,,,0.00,Wunderground v.1.15,2013-06-17 08:15:00,
2013-06-17 03:20:00,59.3,57.3,29.97,NNW,344,0.0,0.0,93,0.00,,,0.00,Wunderground v.1.15,2013-06-17 08:20:00,
2013-06-17 03:25:00,59.2,57.5,29.97,NNW,344,0.0,0.0,94,0.00,,,0.00,Wunderground v.1.15,2013-06-17 08:25:00,
2013-06-17 03:30:00,59.1,57.4,29.97,NNW,342,0.0,0.0,94,0.00,,,0.00,Wunderground v.1.15,2013-06-17 08:30:00,
2013-06-17 03:35:00,59.0,57.3,29.96,NNW,344,0.0,0.0,94,0.00,,,0.00,Wunderground v.1.15,2013-06-17 08:35:00,
2013-06-17 03:40:00,59.0,57.3,29.96,NNW,344,0.0,0.0,94,0.00,,,0.00,Wunderground v.1.15,2013-06-17 08:40:00,
2013-06-17 03:50:00,59.0,57.3,29.96,NNW,344,0.0,0.0,94,0.00,,,0.00,Wunderground v.1.15,2013-06-17 08:50:00,
2013-06-17 03:55:00,59.0,57.3,29.96,NNW,344,0.0,0.0,94,0.00,,,0.00,Wunderground v.1.15,2013-06-17 08:55:00,
2013-06-17 04:00:00,58.8,57.1,29.96,NNW,343,0.0,0.0,94,0.00,,,0.00,Wunderground v.1.15,2013-06-17 09:00:00,
2013-06-17 04:05:00,58.7,57.0,29.95,NNW,342,0.0,0.0,94,0.00,,,0.00,Wunderground v.1.15,2013-06-17 09:05:00,
2013-06-17 04:15:00,58.6,56.9,29.95,NNW,344,0.0,0.0,94,0.00,,,0.00,Wunderground v.1.15,2013-06-17 09:15:00,
2013-06-17 04:20:00,58.5,56.8,29.95,NNW,344,0.0,0.0,94,0.00,,,0.00,Wunderground v.1.15,2013-06-17 09:20:00,
2013-06-17 04:30:00,58.4,56.7,29.95,NNW,344,0.0,0.0,94,0.00,,,0.00,Wunderground v.1.15,2013-06-17 09:30:00,
2013-06-17 04:35:00,58.3,56.6,29.95,NNW,343,0.0,0.0,94,0.00,,,0.00,Wunderground v.1.15,2013-06-17 09:35:00,
2013-06-17 04:40:00,58.2,56.5,29.95,NNW,344,0.0,0.0,94,0.00,,,0.00,Wunderground v.1.15,2013-06-17 09:40:00,
2013-06-17 04:45:00,58.1,56.4,29.95,NNW,344,0.0,0.0,94,0.00,,,0.00,Wunderground v.1.15,2013-06-17 09:45:00,
2013-06-17 04:50:00,58.0,56.3,29.96,NNW,344,0.0,0.0,94,0.00,,,0.00,Wunderground v.1.15,2013-06-17 09:50:00,
2013-06-17 04:55:00,57.9,56.2,29.96,NNW,344,0.0,0.0,94,0.00,,,0.00,Wunderground v.1.15,2013-06-17 09:55:00,
2013-06-17 05:00:00,57.8,56.4,29.96,NNW,344,0.0,0.0,95,0.00,,,0.00,Wunderground v.1.15,2013-06-17 10:00:00,
2013-06-17 05:05:00,57.7,56.3,29.95,NNW,344,0.0,0.0,95,0.00,,,0.00,Wunderground v.1.15,2013-06-17 10:05:00,
2013-06-17 05:15:00,57.5,56.1,29.95,NNW,344,0.0,0.0,95,0.00,,,0.00,Wunderground v.1.15,2013-06-17 10:15:00,
2013-06-17 05:20:00,57.4,56.0,29.96,NNW,344,0.0,0.0,95,0.00,,,0.00,Wunderground v.1.15,2013-06-17 10:20:00,
2013-06-17 05:30:00,57.2,55.8,29.96,NNW,344,0.0,0.0,95,0.00,,,0.00,Wunderground v.1.15,2013-06-17 10:30:00,
2013-06-17 05:35:00,57.2,55.8,29.96,NNW,344,0.0,0.0,95,0.00,,,0.00,Wunderground v.1.15,2013-06-17 10:35:00,
2013-06-17 05:45:00,57.2,55.8,29.97,NNW,344,0.0,0.0,95,0.00,,,0.00,Wunderground v.1.15,2013-06-17 10:45:00,
2013-06-17 05:50:00,57.5,56.1,29.97,NNW,344,0.0,0.0,95,0.00,,,0.00,Wunderground v.1.15,2013-06-17 10:50:00,
2013-06-17 05:55:00,57.7,56.3,29.97,NNW,344,0.0,0.0,95,0.00,,,0.00,Wunderground v.1.15,2013-06-17 10:55:00,
2013-06-17 06:00:00,57.8,56.4,29.97,NNW,344,0.0,0.0,95,0.00,,,0.00,Wunderground v.1.15,2013-06-17 11:00:00,
2013-06-17 06:05:00,58.0,56.6,29.97,NNW,344,0.0,0.0,95,0.00,,,0.00,Wunderground v.1.15,2013-06-17 11:05:00,
2013-06-17 06:15:00,58.2,56.8,29.97,NNW,344,0.0,0.0,95,0.00,,,0.00,Wunderground v.1.15,2013-06-17 11:15:00,
2013-06-17 06:20:00,58.4,57.0,29.97,NNW,344,0.0,0.0,95,0.00,,,0.00,Wunderground v.1.15,2013-06-17 11:20:00,
2013-06-17 06:25:00,58.6,57.5,29.97,NNW,344,0.0,0.0,96,0.00,,,0.00,Wunderground v.1.15,2013-06-17 11:25:00,
2013-06-17 06:30:00,59.0,57.9,29.97,NNW,344,0.0,0.0,96,0.00,,,0.00,Wunderground v.1.15,2013-06-17 11:30:00,
2013-06-17 06:35:00,59.0,57.9,29.97,NNW,344,0.0,0.0,96,0.00,,,0.00,Wunderground v.1.15,2013-06-17 11:35:00,
2013-06-17 06:40:00,59.0,57.9,29.97,NNW,343,0.0,0.0,96,0.00,,,0.00,Wunderground v.1.15,2013-06-17 11:40:00,
2013-06-17 06:50:00,59.7,58.6,29.97,NNW,344,0.0,0.0,96,0.00,,,0.00,Wunderground v.1.15,2013-06-17 11:50:00,
2013-06-17 07:00:00,60.3,59.2,29.98,NNW,342,0.0,0.0,96,0.00,,,0.00,Wunderground v.1.15,2013-06-17 12:00:00,
2013-06-17 07:05:00,60.6,59.5,29.98,NNW,344,0.0,0.0,96,0.00,,,0.00,Wunderground v.1.15,2013-06-17 12:05:00,
2013-06-17 07:15:00,61.7,60.5,29.98,NNW,344,0.0,0.0,96,0.00,,,0.00,Wunderground v.1.15,2013-06-17 12:15:00,
2013-06-17 07:20:00,62.5,61.3,29.98,NNW,343,0.0,0.0,96,0.00,,,0.00,Wunderground v.1.15,2013-06-17 12:20:00,
2013-06-17 07:30:00,64.4,62.9,29.98,NNW,344,0.0,0.0,95,0.00,,,0.00,Wunderground v.1.15,2013-06-17 12:30:00,
2013-06-17 07:35:00,65.8,63.7,29.98,NNW,343,0.0,0.0,93,0.00,,,0.00,Wunderground v.1.15,2013-06-17 12:35:00,
2013-06-17 07:40:00,67.6,64.6,29.99,NNW,344,0.0,0.0,90,0.00,,,0.00,Wunderground v.1.15,2013-06-17 12:40:00,
2013-06-17 07:50:00,70.7,64.2,29.99,NNW,344,0.0,0.0,80,0.00,,,0.00,Wunderground v.1.15,2013-06-17 12:50:00,
2013-06-17 07:55:00,72.1,64.1,29.99,NNW,344,0.0,0.0,76,0.00,,,0.00,Wunderground v.1.15,2013-06-17 12:55:00,
2013-06-17 08:00:00,73.0,62.6,29.98,NNW,344,0.0,0.0,70,0.00,,,0.00,Wunderground v.1.15,2013-06-17 13:00:00,
2013-06-17 08:05:00,74.0,62.3,29.98,NNW,343,0.0,0.0,67,0.00,,,0.00,Wunderground v.1.15,2013-06-17 13:05:00,
2013-06-17 08:15:00,76.1,62.1,29.98,NNW,344,0.0,0.0,62,0.00,,,0.00,Wunderground v.1.15,2013-06-17 13:15:00,
2013-06-17 08:20:00,77.3,62.3,29.98,NNW,343,0.0,0.0,60,0.00,,,0.00,Wunderground v.1.15,2013-06-17 13:20:00,
2013-06-17 08:25:00,78.1,63.1,29.98,NNW,343,0.0,0.0,60,0.00,,,0.00,Wunderground v.1.15,2013-06-17 13:25:00,
2013-06-17 08:35:00,79.0,63.4,29.98,NNW,342,0.0,0.0,59,0.00,,,0.00,Wunderground v.1.15,2013-06-17 13:35:00,
2013-06-17 08:40:00,78.8,61.3,29.98,NNW,344,0.0,0.0,55,0.00,,,0.00,Wunderground v.1.15,2013-06-17 13:40:00,
2013-06-17 08:45:00,78.8,61.3,29.99,NNW,343,0.0,0.0,55,0.00,,,0.00,Wunderground v.1.15,2013-06-17 13:45:00,
2013-06-17 08:55:00,79.0,60.9,29.98,NNW,342,1.0,1.0,54,0.00,,,0.00,Wunderground v.1.15,2013-06-17 13:55:00,
2013-06-17 09:00:00,79.2,61.1,29.99,NNW,344,1.0,1.0,54,0.00,,,0.00,Wunderground v.1.15,2013-06-17 14:00:00,
2013-06-17 09:05:00,79.3,61.2,29.98,NNW,343,0.0,1.0,54,0.00,,,0.00,Wunderground v.1.15,2013-06-17 14:05:00,
2013-06-17 09:15:00,79.6,61.5,29.98,NNW,344,0.0,0.0,54,0.00,,,0.00,Wunderground v.1.15,2013-06-17 14:15:00,
2013-06-17 09:25:00,80.7,61.4,29.98,NNW,343,0.0,0.0,52,0.00,,,0.00,Wunderground v.1.15,2013-06-17 14:25:00,
2013-06-17 09:35:00,82.0,61.0,29.98,NNW,342,0.0,0.0,49,0.00,,,0.00,Wunderground v.1.15,2013-06-17 14:35:00,
2013-06-17 09:40:00,82.5,60.8,29.98,NNW,342,0.0,0.0,48,0.00,,,0.00,Wunderground v.1.15,2013-06-17 14:40:00,
2013-06-17 09:45:00,83.0,61.3,29.98,NNW,343,0.0,0.0,48,0.00,,,0.00,Wunderground v.1.15,2013-06-17 14:45:00,
2013-06-17 09:55:00,83.2,60.9,29.98,NNW,340,1.0,2.0,47,0.00,,,0.00,Wunderground v.1.15,2013-06-17 14:55:00,
2013-06-17 10:05:00,84.2,63.0,29.98,NNW,338,0.0,1.0,49,0.00,,,0.00,Wunderground v.1.15,2013-06-17 15:05:00,
2013-06-17 10:15:00,84.8,60.5,29.98,NNW,338,1.0,1.0,44,0.00,,,0.00,Wunderground v.1.15,2013-06-17 15:15:00,
2013-06-17 10:20:00,84.7,60.4,29.98,NNW,338,0.0,0.0,44,0.00,,,0.00,Wunderground v.1.15,2013-06-17 15:20:00,
2013-06-17 10:30:00,84.4,58.8,29.97,NNW,346,2.0,3.0,42,0.00,,,0.00,Wunderground v.1.15,2013-06-17 15:30:00,
2013-06-17 10:35:00,84.7,59.7,29.97,NNW,344,2.0,3.0,43,0.00,,,0.00,Wunderground v.1.15,2013-06-17 15:35:00,
2013-06-17 10:40:00,85.0,58.7,29.98,NNW,341,2.0,2.0,41,0.00,,,0.00,Wunderground v.1.15,2013-06-17 15:40:00,
2013-06-17 10:45:00,85.2,56.7,29.98,WNW,291,2.0,2.0,38,0.00,,,0.00,Wunderground v.1.15,2013-06-17 15:45:00,
2013-06-17 10:55:00,86.0,58.9,29.98,NW,323,1.0,1.0,40,0.00,,,0.00,Wunderground v.1.15,2013-06-17 15:55:00,
2013-06-17 11:00:00,86.3,60.5,29.97,NNW,334,1.0,1.0,42,0.00,,,0.00,Wunderground v.1.15,2013-06-17 16:00:00,
2013-06-17 11:05:00,86.6,60.8,29.98,WSW,257,1.0,7.0,42,0.00,,,0.00,Wunderground v.1.15,2013-06-17 16:05:00,
2013-06-17 11:15:00,87.3,57.8,29.98,NW,315,2.0,3.0,37,0.00,,,0.00,Wunderground v.1.15,2013-06-17 16:15:00,
2013-06-17 11:25:00,87.6,58.9,29.97,NNW,327,1.0,3.0,38,0.00,,,0.00,Wunderground v.1.15,2013-06-17 16:25:00,
2013-06-17 11:30:00,87.2,57.8,29.97,NNW,338,2.0,4.0,37,0.00,,,0.00,Wunderground v.1.15,2013-06-17 16:30:00,
2013-06-17 11:40:00,87.1,58.4,29.97,NW,325,3.0,5.0,38,0.00,,,0.00,Wunderground v.1.15,2013-06-17 16:40:00,
2013-06-17 11:45:00,86.4,58.5,29.97,NNW,340,4.0,5.0,39,0.00,,,0.00,Wunderground v.1.15,2013-06-17 16:45:00,
2013-06-17 11:50:00,86.4,58.5,29.97,NW,321,3.0,3.0,39,0.00,,,0.00,Wunderground v.1.15,2013-06-17 16:50:00,
2013-06-17 12:00:00,87.5,59.5,29.97,NW,322,3.0,3.0,39,0.00,,,0.00,Wunderground v.1.15,2013-06-17 17:00:00,
2013-06-17 12:05:00,87.6,61.0,29.97,NNW,334,3.0,5.0,41,0.00,,,0.00,Wunderground v.1.15,2013-06-17 17:05:00,
2013-06-17 12:15:00,88.3,62.3,29.97,NNW,335,2.0,7.0,42,0.00,,,0.00,Wunderground v.1.15,2013-06-17 17:15:00,
2013-06-17 12:20:00,88.9,60.7,29.97,NNW,345,2.0,6.0,39,0.00,,,0.00,Wunderground v.1.15,2013-06-17 17:20:00,
2013-06-17 12:25:00,88.6,61.2,29.97,NNW,344,3.0,6.0,40,0.00,,,0.00,Wunderground v.1.15,2013-06-17 17:25:00,
2013-06-17 12:35:00,88.5,60.4,29.97,NNW,336,3.0,4.0,39,0.00,,,0.00,Wunderground v.1.15,2013-06-17 17:35:00,
2013-06-17 12:40:00,89.2,61.7,29.97,West,277,3.0,3.0,40,0.00,,,0.00,Wunderground v.1.15,2013-06-17 17:40:00,
2013-06-17 12:45:00,90.6,60.8,29.97,West,273,1.0,3.0,37,0.00,,,0.00,Wunderground v.1.15,2013-06-17 17:45:00,
2013-06-17 12:50:00,91.1,61.2,29.96,NW,321,1.0,2.0,37,0.00,,,0.00,Wunderground v.1.15,2013-06-17 17:50:00,
2013-06-17 12:55:00,90.8,60.2,29.96,NNW,330,2.0,3.0,36,0.00,,,0.00,Wunderground v.1.15,2013-06-17 17:55:00,
2013-06-17 13:00:00,90.5,61.4,29.96,NW,321,3.0,3.0,38,0.00,,,0.00,Wunderground v.1.15,2013-06-17 18:00:00,
2013-06-17 13:05:00,90.0,60.2,29.96,NNW,329,4.0,4.0,37,0.00,,,0.00,Wunderground v.1.15,2013-06-17 18:05:00,
2013-06-17 13:15:00,90.4,60.6,29.96,WSW,250,2.0,3.0,37,0.00,,,0.00,Wunderground v.1.15,2013-06-17 18:15:00,
2013-06-17 13:20:00,90.7,60.1,29.96,NNW,333,2.0,3.0,36,0.00,,,0.00,Wunderground v.1.15,2013-06-17 18:20:00,
2013-06-17 13:25:00,90.2,60.4,29.96,NNW,342,3.0,3.0,37,0.00,,,0.00,Wunderground v.1.15,2013-06-17 18:25:00,
2013-06-17 13:30:00,89.9,59.4,29.96,West,279,3.0,3.0,36,0.00,,,0.00,Wunderground v.1.15,2013-06-17 18:30:00,
2013-06-17 13:35:00,90.3,58.9,29.96,NW,319,3.0,3.0,35,0.00,,,0.00,Wunderground v.1.15,2013-06-17 18:35:00,
2013-06-17 13:45:00,90.4,59.8,29.96,West,259,3.0,7.0,36,0.00,,,0.00,Wunderground v.1.15,2013-06-17 18:45:00,
2013-06-17 13:50:00,91.1,60.4,29.95,NNW,338,2.0,2.0,36,0.00,,,0.00,Wunderground v.1.15,2013-06-17 18:50:00,
2013-06-17 13:55:00,91.1,60.4,29.95,NNW,340,2.0,2.0,36,0.00,,,0.00,Wunderground v.1.15,2013-06-17 18:55:00,
2013-06-17 14:00:00,91.8,61.0,29.95,NNW,342,1.0,1.0,36,0.00,,,0.00,Wunderground v.1.15,2013-06-17 19:00:00,
2013-06-17 14:05:00,92.5,62.4,29.95,WNW,300,1.0,1.0,37,0.00,,,0.00,Wunderground v.1.15,2013-06-17 19:05:00,
2013-06-17 14:15:00,92.5,60.9,29.94,North,355,1.0,4.0,35,0.00,,,0.00,Wunderground v.1.15,2013-06-17 19:15:00,
2013-06-17 14:20:00,91.8,61.8,29.94,NNW,332,2.0,2.0,37,0.00,,,0.00,Wunderground v.1.15,2013-06-17 19:20:00,
2013-06-17 14:25:00,91.9,60.3,29.95,North,355,2.0,5.0,35,0.00,,,0.00,Wunderground v.1.15,2013-06-17 19:25:00,
2013-06-17 14:30:00,91.7,61.0,29.95,NW,310,2.0,2.0,36,0.00,,,0.00,Wunderground v.1.15,2013-06-17 19:30:00,
2013-06-17 14:35:00,91.9,61.1,29.94,NW,321,1.0,2.0,36,0.00,,,0.00,Wunderground v.1.15,2013-06-17 19:35:00,
2013-06-17 14:45:00,92.0,59.6,29.94,NNW,333,2.0,6.0,34,0.00,,,0.00,Wunderground v.1.15,2013-06-17 19:45:00,
2013-06-17 14:50:00,91.8,60.3,29.94,NNW,329,2.0,4.0,35,0.00,,,0.00,Wunderground v.1.15,2013-06-17 19:50:00,
2013-06-17 14:55:00,91.2,60.5,29.94,NNW,337,2.0,4.0,36,0.00,,,0.00,Wunderground v.1.15,2013-06-17 19:55:00,
2013-06-17 15:05:00,91.3,59.8,29.94,NNW,336,2.0,2.0,35,0.00,,,0.00,Wunderground v.1.15,2013-06-17 20:05:00,
2013-06-17 15:15:00,92.1,60.5,29.94,NNW,337,0.0,1.0,35,0.00,,,0.00,Wunderground v.1.15,2013-06-17 20:15:00,
2013-06-17 15:25:00,92.5,61.7,29.93,NNW,345,1.0,1.0,36,0.00,,,0.00,Wunderground v.1.15,2013-06-17 20:25:00,
2013-06-17 15:30:00,92.2,59.8,29.93,NNW,344,1.0,5.0,34,0.00,,,0.00,Wunderground v.1.15,2013-06-17 20:30:00,
2013-06-17 15:35:00,91.8,59.4,29.93,NNW,338,2.0,5.0,34,0.00,,,0.00,Wunderground v.1.15,2013-06-17 20:35:00,
2013-06-17 15:40:00,92.1,60.5,29.92,NNW,342,2.0,2.0,35,0.00,,,0.00,Wunderground v.1.15,2013-06-17 20:40:00,
2013-06-17 15:45:00,92.4,62.4,29.92,NNW,340,1.0,2.0,37,0.00,,,0.00,Wunderground v.1.15,2013-06-17 20:45:00,
2013-06-17 15:50:00,92.8,60.3,29.92,NNW,346,1.0,4.0,34,0.00,,,0.00,Wunderground v.1.15,2013-06-17 20:50:00,
2013-06-17 15:55:00,92.6,61.7,29.92,NNW,342,1.0,4.0,36,0.00,,,0.00,Wunderground v.1.15,2013-06-17 20:55:00,
2013-06-17 16:00:00,93.1,60.6,29.92,NNW,343,1.0,1.0,34,0.00,,,0.00,Wunderground v.1.15,2013-06-17 21:00:00,
2013-06-17 16:05:00,93.6,61.8,29.92,NNW,342,0.0,2.0,35,0.00,,,0.00,Wunderground v.1.15,2013-06-17 21:05:00,
2013-06-17 16:15:00,93.5,60.9,29.91,NNW,342,1.0,1.0,34,0.00,,,0.00,Wunderground v.1.15,2013-06-17 21:15:00,
2013-06-17 16:20:00,93.7,61.1,29.91,NNW,342,1.0,4.0,34,0.00,,,0.00,Wunderground v.1.15,2013-06-17 21:20:00,
2013-06-17 16:25:00,93.5,60.1,29.91,NNW,339,1.0,4.0,33,0.00,,,0.00,Wunderground v.1.15,2013-06-17 21:25:00,
2013-06-17 16:35:00,92.5,59.2,29.91,NNW,342,1.0,1.0,33,0.00,,,0.00,Wunderground v.1.15,2013-06-17 21:35:00,
2013-06-17 16:40:00,91.6,62.4,29.91,NNW,346,0.0,0.0,38,0.00,,,0.00,Wunderground v.1.15,2013-06-17 21:40:00,
2013-06-17 16:50:00,90.9,61.8,29.91,NNW,347,0.0,0.0,38,0.00,,,0.00,Wunderground v.1.15,2013-06-17 21:50:00,
2013-06-17 16:55:00,91.4,60.7,29.91,NNW,345,0.0,0.0,36,0.00,,,0.00,Wunderground v.1.15,2013-06-17 21:55:00,
2013-06-17 17:00:00,90.8,60.2,29.90,NNW,342,1.0,1.0,36,0.00,,,0.00,Wunderground v.1.15,2013-06-17 22:00:00,
2013-06-17 17:05:00,90.7,60.8,29.90,NNW,342,1.0,1.0,37,0.00,,,0.00,Wunderground v.1.15,2013-06-17 22:05:00,
2013-06-17 17:15:00,90.0,61.0,29.90,NNW,338,1.0,2.0,38,0.00,,,0.00,Wunderground v.1.15,2013-06-17 22:15:00,
2013-06-17 17:20:00,89.6,59.1,29.90,NNW,337,1.0,1.0,36,0.00,,,0.00,Wunderground v.1.15,2013-06-17 22:20:00,
2013-06-17 17:30:00,88.6,58.2,29.90,NNW,342,1.0,1.0,36,0.00,,,0.00,Wunderground v.1.15,2013-06-17 22:30:00,
2013-06-17 17:35:00,88.2,57.9,29.89,NNW,341,1.0,1.0,36,0.00,,,0.00,Wunderground v.1.15,2013-06-17 22:35:00,
2013-06-17 17:40:00,88.3,63.0,29.89,NNW,341,0.0,0.0,43,0.00,,,0.00,Wunderground v.1.15,2013-06-17 22:40:00,
2013-06-17 17:45:00,88.1,61.4,29.89,NNW,341,0.0,0.0,41,0.00,,,0.00,Wunderground v.1.15,2013-06-17 22:45:00,
2013-06-17 17:55:00,88.0,60.7,29.89,NNW,341,0.0,0.0,40,0.00,,,0.00,Wunderground v.1.15,2013-06-17 22:55:00,
2013-06-17 18:00:00,87.9,59.1,29.89,NNW,341,1.0,1.0,38,0.00,,,0.00,Wunderground v.1.15,2013-06-17 23:00:00,
2013-06-17 18:05:00,87.7,59.7,29.90,NNW,341,0.0,1.0,39,0.00,,,0.00,Wunderground v.1.15,2013-06-17 23:05:00,
2013-06-17 18:15:00,87.3,60.7,29.90,NNW,340,1.0,2.0,41,0.00,,,0.00,Wunderground v.1.15,2013-06-17 23:15:00,
2013-06-17 18:20:00,86.9,59.7,29.89,NNW,340,1.0,1.0,40,0.00,,,0.00,Wunderground v.1.15,2013-06-17 23:20:00,
2013-06-17 18:25:00,86.7,60.2,29.89,NNW,340,1.0,1.0,41,0.00,,,0.00,Wunderground v.1.15,2013-06-17 23:25:00,
2013-06-17 18:30:00,86.5,60.0,29.89,NNW,340,0.0,2.0,41,0.00,,,0.00,Wunderground v.1.15,2013-06-17 23:30:00,
2013-06-17 18:35:00,86.4,59.9,29.89,NNW,340,1.0,2.0,41,0.00,,,0.00,Wunderground v.1.15,2013-06-17 23:35:00,
2013-06-17 18:45:00,86.0,66.3,29.90,NNW,340,0.0,0.0,52,0.00,,,0.00,Wunderground v.1.15,2013-06-17 23:45:00,
2013-06-17 18:50:00,85.5,61.7,29.90,NNW,340,0.0,0.0,45,0.00,,,0.00,Wunderground v.1.15,2013-06-17 23:50:00,
2013-06-17 18:55:00,85.4,61.6,29.91,NNW,342,1.0,2.0,45,0.00,,,0.00,Wunderground v.1.15,2013-06-17 23:55:00,
2013-06-17 19:00:00,85.1,60.7,29.90,NNW,341,1.0,3.0,44,0.00,,,0.00,Wunderground v.1.15,2013-06-18 00:00:00,
2013-06-17 19:05:00,85.0,60.6,29.90,NNW,341,1.0,3.0,44,0.00,,,0.00,Wunderground v.1.15,2013-06-18 00:05:00,
2013-06-17 19:15:00,84.8,60.5,29.91,NNW,342,1.0,2.0,44,0.00,,,0.00,Wunderground v.1.15,2013-06-18 00:15:00,
2013-06-17 19:20:00,84.7,60.4,29.91,NNW,341,1.0,1.0,44,0.00,,,0.00,Wunderground v.1.15,2013-06-18 00:20:00,
2013-06-17 19:25:00,84.4,60.1,29.91,NNW,341,1.0,1.0,44,0.00,,,0.00,Wunderground v.1.15,2013-06-18 00:25:00,
2013-06-17 19:30:00,84.1,59.8,29.91,NNW,341,1.0,1.0,44,0.00,,,0.00,Wunderground v.1.15,2013-06-18 00:30:00,
2013-06-17 19:40:00,83.3,60.4,29.91,NNW,341,0.0,0.0,46,0.00,,,0.00,Wunderground v.1.15,2013-06-18 00:40:00,
2013-06-17 19:45:00,82.7,61.6,29.91,NNW,341,0.0,0.0,49,0.00,,,0.00,Wunderground v.1.15,2013-06-18 00:45:00,
2013-06-17 19:50:00,81.6,61.2,29.91,NNW,341,0.0,0.0,50,0.00,,,0.00,Wunderground v.1.15,2013-06-18 00:50:00,
2013-06-17 20:00:00,79.6,61.0,29.91,NNW,341,0.0,0.0,53,0.00,,,0.00,Wunderground v.1.15,2013-06-18 01:00:00,
2013-06-17 20:05:00,78.7,61.7,29.91,NNW,341,0.0,0.0,56,0.00,,,0.00,Wunderground v.1.15,2013-06-18 01:05:00,
2013-06-17 20:15:00,77.3,62.3,29.92,NNW,341,0.0,0.0,60,0.00,,,0.00,Wunderground v.1.15,2013-06-18 01:15:00,
2013-06-17 20:20:00,76.7,63.2,29.92,NNW,341,0.0,0.0,63,0.00,,,0.00,Wunderground v.1.15,2013-06-18 01:20:00,
2013-06-17 20:25:00,76.0,62.5,29.92,NNW,341,0.0,0.0,63,0.00,,,0.00,Wunderground v.1.15,2013-06-18 01:25:00,
2013-06-17 20:35:00,75.0,62.9,29.92,NNW,341,0.0,0.0,66,0.00,,,0.00,Wunderground v.1.15,2013-06-18 01:35:00,
2013-06-17 20:40:00,74.4,62.3,29.92,NNW,341,0.0,0.0,66,0.00,,,0.00,Wunderground v.1.15,2013-06-18 01:40:00,
2013-06-17 20:50:00,73.2,62.0,29.92,NNW,341,0.0,0.0,68,0.00,,,0.00,Wunderground v.1.15,2013-06-18 01:50:00,
2013-06-17 20:55:00,72.6,62.3,29.92,NNW,341,0.0,0.0,70,0.00,,,0.00,Wunderground v.1.15,2013-06-18 01:55:00,
2013-06-17 21:00:00,72.0,62.9,29.92,NNW,341,0.0,0.0,73,0.00,,,0.00,Wunderground v.1.15,2013-06-18 02:00:00,
2013-06-17 21:05:00,71.6,62.5,29.92,NNW,341,0.0,0.0,73,0.00,,,0.00,Wunderground v.1.15,2013-06-18 02:05:00,
2013-06-17 21:15:00,71.0,62.7,29.93,NNW,341,0.0,0.0,75,0.00,,,0.00,Wunderground v.1.15,2013-06-18 02:15:00,
2013-06-17 21:20:00,70.7,62.4,29.93,NNW,341,0.0,0.0,75,0.00,,,0.00,Wunderground v.1.15,2013-06-18 02:20:00,
2013-06-17 21:25:00,70.3,62.4,29.93,NNW,341,0.0,0.0,76,0.00,,,0.00,Wunderground v.1.15,2013-06-18 02:25:00,
2013-06-17 21:30:00,69.8,62.6,29.93,NNW,341,0.0,0.0,78,0.00,,,0.00,Wunderground v.1.15,2013-06-18 02:30:00,
2013-06-17 21:35:00,69.4,62.6,29.93,NNW,341,0.0,0.0,79,0.00,,,0.00,Wunderground v.1.15,2013-06-18 02:35:00,
2013-06-17 21:45:00,68.8,62.7,29.94,NNW,341,0.0,0.0,81,0.00,,,0.00,Wunderground v.1.15,2013-06-18 02:45:00,
2013-06-17 21:50:00,68.6,62.5,29.94,NNW,341,0.0,0.0,81,0.00,,,0.00,Wunderground v.1.15,2013-06-18 02:50:00,
2013-06-17 21:55:00,68.7,63.0,29.94,NNW,341,0.0,0.0,82,0.00,,,0.00,Wunderground v.1.15,2013-06-18 02:55:00,
2013-06-17 22:00:00,68.7,63.0,29.94,NNW,341,0.0,0.0,82,0.00,,,0.00,Wunderground v.1.15,2013-06-18 03:00:00,
2013-06-17 22:05:00,68.7,63.0,29.94,NNW,341,0.0,0.0,82,0.00,,,0.00,Wunderground v.1.15,2013-06-18 03:05:00,
2013-06-17 22:15:00,68.7,63.0,29.94,NNW,341,0.0,0.0,82,0.00,,,0.00,Wunderground v.1.15,2013-06-18 03:15:00,
2013-06-17 22:20:00,68.9,63.5,29.94,NNW,341,0.0,0.0,83,0.00,,,0.00,Wunderground v.1.15,2013-06-18 03:20:00,
2013-06-17 22:25:00,68.9,63.5,29.94,NNW,341,0.0,0.0,83,0.00,,,0.00,Wunderground v.1.15,2013-06-18 03:25:00,
2013-06-17 22:30:00,68.9,63.5,29.94,NNW,341,0.0,0.0,83,0.00,,,0.00,Wunderground v.1.15,2013-06-18 03:30:00,
2013-06-17 22:35:00,68.7,63.3,29.94,NNW,341,0.0,0.0,83,0.00,,,0.00,Wunderground v.1.15,2013-06-18 03:35:00,
2013-06-17 22:45:00,68.4,63.0,29.94,NNW,341,0.0,0.0,83,0.00,,,0.00,Wunderground v.1.15,2013-06-18 03:45:00,
2013-06-17 22:55:00,68.1,63.1,29.94,NNW,341,0.0,0.0,84,0.00,,,0.00,Wunderground v.1.15,2013-06-18 03:55:00,
2013-06-17 23:00:00,67.9,62.9,29.94,NNW,341,0.0,0.0,84,0.00,,,0.00,Wunderground v.1.15,2013-06-18 04:00:00,
2013-06-17 23:05:00,67.6,62.9,29.94,NNW,341,0.0,0.0,85,0.00,,,0.00,Wunderground v.1.15,2013-06-18 04:05:00,
2013-06-17 23:10:00,67.4,62.7,29.94,NNW,341,0.0,0.0,85,0.00,,,0.00,Wunderground v.1.15,2013-06-18 04:10:00,
2013-06-17 23:15:00,67.2,62.5,29.94,NNW,341,0.0,0.0,85,0.00,,,0.00,Wunderground v.1.15,2013-06-18 04:15:00,
2013-06-17 23:20:00,67.0,62.7,29.94,NNW,341,0.0,0.0,86,0.00,,,0.00,Wunderground v.1.15,2013-06-18 04:20:00,
2013-06-17 23:25:00,66.8,62.1,29.95,SE,124,0.0,0.0,85,0.00,,,0.00,Wunderground v.1.15,2013-06-18 04:25:00,
2013-06-17 23:30:00,67.2,62.2,29.95,SE,129,0.0,0.0,84,0.00,,,0.00,Wunderground v.1.15,2013-06-18 04:30:00,
2013-06-17 23:35:00,67.9,61.5,29.95,SE,126,0.0,0.0,80,0.00,,,0.00,Wunderground v.1.15,2013-06-18 04:35:00,
2013-06-17 23:40:00,68.4,61.3,29.95,ESE,103,0.0,0.0,78,0.00,,,0.00,Wunderground v.1.15,2013-06-18 04:40:00,
2013-06-17 23:45:00,68.5,60.6,29.95,ESE,105,1.0,1.0,76,0.00,,,0.00,Wunderground v.1.15,2013-06-18 04:45:00,
2013-06-17 23:55:00,67.9,59.7,29.95,SE,136,0.0,1.0,75,0.00,,,0.00,Wunderground v.1.15,2013-06-18 04:55:00,